sensor_id;sensor_type;location;lat;lon;timestamp;P1;durP1;ratioP1;P2;durP2;ratioP2
17763;SDS011;22245;52.832;13.816;2023-02-28T00:01:02;9.53;;;4.63;;
17763;SDS011;22245;52.832;13.816;2023-02-28T00:04:25;8.30;;;3.80;;
17763;SDS011;22245;52.832;13.816;2023-02-28T00:07:47;8.33;;;4.20;;
17763;SDS011;22245;52.832;13.816;2023-02-28T00:11:10;8.27;;;4.27;;
17763;SDS011;22245;52.832;13.816;2023-02-28T00:14:35;6.97;;;3.50;;
17763;SDS011;22245;52.832;13.816;2023-02-28T00:17:56;7.40;;;3.80;;
17763;SDS011;22245;52.832;13.816;2023-02-28T00:21:20;6.27;;;3.50;;
17763;SDS011;22245;52.832;13.816;2023-02-28T00:24:41;7.97;;;3.10;;
17763;SDS011;22245;52.832;13.816;2023-02-28T00:28:03;5.97;;;2.90;;
17763;SDS011;22245;52.832;13.816;2023-02-28T00:31:25;6.90;;;4.03;;
17763;SDS011;22245;52.832;13.816;2023-02-28T00:34:47;5.83;;;3.00;;
17763;SDS011;22245;52.832;13.816;2023-02-28T00:38:10;5.60;;;2.90;;
17763;SDS011;22245;52.832;13.816;2023-02-28T00:41:32;7.10;;;2.77;;
17763;SDS011;22245;52.832;13.816;2023-02-28T00:44:54;7.90;;;2.70;;
17763;SDS011;22245;52.832;13.816;2023-02-28T00:48:16;6.47;;;2.70;;
17763;SDS011;22245;52.832;13.816;2023-02-28T00:51:38;5.97;;;2.63;;
17763;SDS011;22245;52.832;13.816;2023-02-28T00:55:02;5.83;;;2.50;;
17763;SDS011;22245;52.832;13.816;2023-02-28T00:58:23;7.90;;;3.00;;
17763;SDS011;22245;52.832;13.816;2023-02-28T01:01:46;3.53;;;2.40;;
17763;SDS011;22245;52.832;13.816;2023-02-28T01:05:08;4.90;;;2.40;;
17763;SDS011;22245;52.832;13.816;2023-02-28T01:08:29;4.93;;;2.60;;
17763;SDS011;22245;52.832;13.816;2023-02-28T01:11:53;5.03;;;2.40;;
17763;SDS011;22245;52.832;13.816;2023-02-28T01:15:15;4.97;;;2.20;;
17763;SDS011;22245;52.832;13.816;2023-02-28T01:18:37;7.13;;;2.47;;
17763;SDS011;22245;52.832;13.816;2023-02-28T01:22:00;5.60;;;2.80;;
17763;SDS011;22245;52.832;13.816;2023-02-28T01:25:23;3.83;;;2.43;;
17763;SDS011;22245;52.832;13.816;2023-02-28T01:28:46;7.23;;;2.40;;
17763;SDS011;22245;52.832;13.816;2023-02-28T01:32:09;4.37;;;2.27;;
17763;SDS011;22245;52.832;13.816;2023-02-28T01:35:32;3.37;;;2.00;;
17763;SDS011;22245;52.832;13.816;2023-02-28T01:38:54;4.57;;;2.40;;
17763;SDS011;22245;52.832;13.816;2023-02-28T01:42:16;5.87;;;2.60;;
17763;SDS011;22245;52.832;13.816;2023-02-28T01:45:39;8.37;;;2.73;;
17763;SDS011;22245;52.832;13.816;2023-02-28T01:49:03;6.20;;;2.40;;
17763;SDS011;22245;52.832;13.816;2023-02-28T01:52:28;7.07;;;2.50;;
17763;SDS011;22245;52.832;13.816;2023-02-28T01:55:51;7.33;;;3.03;;
17763;SDS011;22245;52.832;13.816;2023-02-28T01:59:17;4.80;;;2.67;;
17763;SDS011;22245;52.832;13.816;2023-02-28T02:02:48;7.90;;;2.70;;
17763;SDS011;22245;52.832;13.816;2023-02-28T02:06:15;5.50;;;3.00;;
17763;SDS011;22245;52.832;13.816;2023-02-28T02:09:36;6.77;;;2.87;;
17763;SDS011;22245;52.832;13.816;2023-02-28T02:13:05;5.53;;;2.73;;
17763;SDS011;22245;52.832;13.816;2023-02-28T02:16:38;5.97;;;2.80;;
17763;SDS011;22245;52.832;13.816;2023-02-28T02:24:25;6.93;;;2.90;;
17763;SDS011;22245;52.832;13.816;2023-02-28T02:36:13;6.93;;;2.73;;
17763;SDS011;22245;52.832;13.816;2023-02-28T02:39:46;4.67;;;2.20;;
17763;SDS011;22245;52.832;13.816;2023-02-28T02:43:13;5.43;;;2.30;;
17763;SDS011;22245;52.832;13.816;2023-02-28T02:46:41;3.77;;;1.90;;
17763;SDS011;22245;52.832;13.816;2023-02-28T02:50:05;5.13;;;2.13;;
17763;SDS011;22245;52.832;13.816;2023-02-28T02:53:34;4.87;;;2.20;;
17763;SDS011;22245;52.832;13.816;2023-02-28T02:57:03;7.37;;;2.03;;
17763;SDS011;22245;52.832;13.816;2023-02-28T03:00:29;4.13;;;2.20;;
17763;SDS011;22245;52.832;13.816;2023-02-28T03:03:56;6.87;;;3.03;;
17763;SDS011;22245;52.832;13.816;2023-02-28T03:07:19;5.63;;;3.20;;
17763;SDS011;22245;52.832;13.816;2023-02-28T03:10:43;6.90;;;3.07;;
17763;SDS011;22245;52.832;13.816;2023-02-28T03:18:00;5.97;;;3.10;;
17763;SDS011;22245;52.832;13.816;2023-02-28T03:21:26;6.40;;;2.87;;
17763;SDS011;22245;52.832;13.816;2023-02-28T03:24:56;6.23;;;2.80;;
17763;SDS011;22245;52.832;13.816;2023-02-28T03:28:30;4.20;;;2.30;;
17763;SDS011;22245;52.832;13.816;2023-02-28T03:31:59;4.17;;;2.70;;
17763;SDS011;22245;52.832;13.816;2023-02-28T03:35:28;5.40;;;3.00;;
17763;SDS011;22245;52.832;13.816;2023-02-28T03:38:54;7.03;;;3.33;;
17763;SDS011;22245;52.832;13.816;2023-02-28T03:42:23;7.53;;;2.90;;
17763;SDS011;22245;52.832;13.816;2023-02-28T03:45:49;6.73;;;3.17;;
17763;SDS011;22245;52.832;13.816;2023-02-28T03:49:14;7.73;;;3.73;;
17763;SDS011;22245;52.832;13.816;2023-02-28T03:52:39;12.00;;;4.77;;
17763;SDS011;22245;52.832;13.816;2023-02-28T03:56:07;8.37;;;3.70;;
17763;SDS011;22245;52.832;13.816;2023-02-28T03:59:34;7.70;;;3.23;;
17763;SDS011;22245;52.832;13.816;2023-02-28T04:03:00;10.00;;;3.97;;
17763;SDS011;22245;52.832;13.816;2023-02-28T04:06:22;11.20;;;3.70;;
17763;SDS011;22245;52.832;13.816;2023-02-28T04:09:44;8.73;;;3.60;;
17763;SDS011;22245;52.832;13.816;2023-02-28T04:13:06;14.90;;;4.23;;
17763;SDS011;22245;52.832;13.816;2023-02-28T04:16:28;32.97;;;7.80;;
17763;SDS011;22245;52.832;13.816;2023-02-28T04:19:56;51.70;;;12.30;;
17763;SDS011;22245;52.832;13.816;2023-02-28T04:23:18;64.77;;;17.57;;
17763;SDS011;22245;52.832;13.816;2023-02-28T04:26:40;86.77;;;25.00;;
17763;SDS011;22245;52.832;13.816;2023-02-28T04:30:04;65.63;;;20.30;;
17763;SDS011;22245;52.832;13.816;2023-02-28T04:33:27;32.57;;;13.47;;
17763;SDS011;22245;52.832;13.816;2023-02-28T04:36:51;25.17;;;9.80;;
17763;SDS011;22245;52.832;13.816;2023-02-28T04:40:31;15.07;;;6.40;;
17763;SDS011;22245;52.832;13.816;2023-02-28T04:43:53;10.03;;;3.97;;
17763;SDS011;22245;52.832;13.816;2023-02-28T04:47:15;8.83;;;3.73;;
17763;SDS011;22245;52.832;13.816;2023-02-28T04:50:37;10.40;;;3.90;;
17763;SDS011;22245;52.832;13.816;2023-02-28T04:54:00;8.13;;;4.00;;
17763;SDS011;22245;52.832;13.816;2023-02-28T04:57:22;8.60;;;3.33;;
17763;SDS011;22245;52.832;13.816;2023-02-28T05:00:44;6.43;;;3.00;;
17763;SDS011;22245;52.832;13.816;2023-02-28T05:04:06;5.40;;;2.93;;
17763;SDS011;22245;52.832;13.816;2023-02-28T05:07:28;5.60;;;2.80;;
17763;SDS011;22245;52.832;13.816;2023-02-28T05:10:51;5.40;;;2.93;;
17763;SDS011;22245;52.832;13.816;2023-02-28T05:14:13;4.60;;;2.43;;
17763;SDS011;22245;52.832;13.816;2023-02-28T05:17:35;6.13;;;2.87;;
17763;SDS011;22245;52.832;13.816;2023-02-28T05:20:57;6.50;;;3.10;;
17763;SDS011;22245;52.832;13.816;2023-02-28T05:24:19;6.17;;;3.00;;
17763;SDS011;22245;52.832;13.816;2023-02-28T05:27:44;9.10;;;3.90;;
17763;SDS011;22245;52.832;13.816;2023-02-28T05:31:07;12.27;;;4.83;;
17763;SDS011;22245;52.832;13.816;2023-02-28T05:34:30;10.83;;;5.47;;
17763;SDS011;22245;52.832;13.816;2023-02-28T05:37:52;8.60;;;4.67;;
17763;SDS011;22245;52.832;13.816;2023-02-28T05:41:14;8.00;;;3.60;;
17763;SDS011;22245;52.832;13.816;2023-02-28T05:44:38;5.07;;;3.20;;
17763;SDS011;22245;52.832;13.816;2023-02-28T05:47:59;6.43;;;2.97;;
17763;SDS011;22245;52.832;13.816;2023-02-28T05:51:21;6.43;;;2.93;;
17763;SDS011;22245;52.832;13.816;2023-02-28T05:54:43;7.07;;;2.70;;
17763;SDS011;22245;52.832;13.816;2023-02-28T05:58:04;6.20;;;2.83;;
17763;SDS011;22245;52.832;13.816;2023-02-28T06:01:32;9.53;;;3.17;;
17763;SDS011;22245;52.832;13.816;2023-02-28T06:04:55;6.57;;;2.80;;
17763;SDS011;22245;52.832;13.816;2023-02-28T06:08:17;7.23;;;2.90;;
17763;SDS011;22245;52.832;13.816;2023-02-28T06:11:39;10.57;;;3.67;;
17763;SDS011;22245;52.832;13.816;2023-02-28T06:15:02;8.93;;;3.53;;
17763;SDS011;22245;52.832;13.816;2023-02-28T06:18:26;6.73;;;3.17;;
17763;SDS011;22245;52.832;13.816;2023-02-28T06:21:48;9.67;;;3.80;;
17763;SDS011;22245;52.832;13.816;2023-02-28T06:25:10;8.00;;;3.80;;
17763;SDS011;22245;52.832;13.816;2023-02-28T06:28:32;6.83;;;3.50;;
17763;SDS011;22245;52.832;13.816;2023-02-28T06:31:54;9.60;;;4.03;;
17763;SDS011;22245;52.832;13.816;2023-02-28T06:35:18;8.93;;;4.07;;
17763;SDS011;22245;52.832;13.816;2023-02-28T06:38:40;10.50;;;4.50;;
17763;SDS011;22245;52.832;13.816;2023-02-28T06:42:02;15.20;;;6.27;;
17763;SDS011;22245;52.832;13.816;2023-02-28T06:45:24;19.13;;;7.70;;
17763;SDS011;22245;52.832;13.816;2023-02-28T06:48:46;18.80;;;8.10;;
17763;SDS011;22245;52.832;13.816;2023-02-28T06:52:09;17.13;;;7.63;;
17763;SDS011;22245;52.832;13.816;2023-02-28T06:55:31;16.50;;;5.93;;
17763;SDS011;22245;52.832;13.816;2023-02-28T06:58:53;15.10;;;5.83;;
17763;SDS011;22245;52.832;13.816;2023-02-28T07:02:16;9.93;;;4.67;;
17763;SDS011;22245;52.832;13.816;2023-02-28T07:05:38;16.87;;;6.93;;
17763;SDS011;22245;52.832;13.816;2023-02-28T07:09:02;15.20;;;6.07;;
17763;SDS011;22245;52.832;13.816;2023-02-28T07:12:25;14.00;;;6.37;;
17763;SDS011;22245;52.832;13.816;2023-02-28T07:15:52;15.27;;;6.03;;
17763;SDS011;22245;52.832;13.816;2023-02-28T07:19:15;15.63;;;6.53;;
17763;SDS011;22245;52.832;13.816;2023-02-28T07:22:37;12.37;;;5.90;;
17763;SDS011;22245;52.832;13.816;2023-02-28T07:26:01;14.60;;;5.83;;
17763;SDS011;22245;52.832;13.816;2023-02-28T07:29:23;8.83;;;4.87;;
17763;SDS011;22245;52.832;13.816;2023-02-28T07:32:44;12.17;;;6.03;;
17763;SDS011;22245;52.832;13.816;2023-02-28T07:36:07;10.17;;;5.20;;
17763;SDS011;22245;52.832;13.816;2023-02-28T07:39:33;15.17;;;6.53;;
17763;SDS011;22245;52.832;13.816;2023-02-28T07:42:57;12.67;;;5.47;;
17763;SDS011;22245;52.832;13.816;2023-02-28T07:46:20;10.60;;;5.60;;
17763;SDS011;22245;52.832;13.816;2023-02-28T07:49:42;11.47;;;5.63;;
17763;SDS011;22245;52.832;13.816;2023-02-28T07:53:04;12.37;;;6.00;;
17763;SDS011;22245;52.832;13.816;2023-02-28T07:56:25;16.60;;;6.17;;
17763;SDS011;22245;52.832;13.816;2023-02-28T07:59:50;12.53;;;6.50;;
17763;SDS011;22245;52.832;13.816;2023-02-28T08:03:12;12.33;;;6.40;;
17763;SDS011;22245;52.832;13.816;2023-02-28T08:06:33;13.63;;;6.83;;
17763;SDS011;22245;52.832;13.816;2023-02-28T08:09:55;13.13;;;6.73;;
17763;SDS011;22245;52.832;13.816;2023-02-28T08:13:17;14.27;;;7.23;;
17763;SDS011;22245;52.832;13.816;2023-02-28T08:16:40;14.73;;;7.10;;
17763;SDS011;22245;52.832;13.816;2023-02-28T08:20:03;12.50;;;7.17;;
17763;SDS011;22245;52.832;13.816;2023-02-28T08:23:25;19.33;;;7.07;;
17763;SDS011;22245;52.832;13.816;2023-02-28T08:26:47;11.13;;;6.23;;
17763;SDS011;22245;52.832;13.816;2023-02-28T08:30:10;14.53;;;6.13;;
17763;SDS011;22245;52.832;13.816;2023-02-28T08:33:34;11.47;;;6.53;;
17763;SDS011;22245;52.832;13.816;2023-02-28T08:36:56;11.17;;;6.27;;
17763;SDS011;22245;52.832;13.816;2023-02-28T08:40:18;13.63;;;6.50;;
17763;SDS011;22245;52.832;13.816;2023-02-28T08:43:41;14.63;;;6.63;;
17763;SDS011;22245;52.832;13.816;2023-02-28T08:47:03;13.60;;;7.13;;
17763;SDS011;22245;52.832;13.816;2023-02-28T08:50:26;14.67;;;7.17;;
17763;SDS011;22245;52.832;13.816;2023-02-28T08:53:48;15.10;;;7.37;;
17763;SDS011;22245;52.832;13.816;2023-02-28T08:57:10;14.37;;;8.03;;
17763;SDS011;22245;52.832;13.816;2023-02-28T09:00:32;14.77;;;7.77;;
17763;SDS011;22245;52.832;13.816;2023-02-28T09:03:54;16.87;;;8.47;;
17763;SDS011;22245;52.832;13.816;2023-02-28T09:07:19;15.13;;;8.10;;
17763;SDS011;22245;52.832;13.816;2023-02-28T09:10:40;17.53;;;8.57;;
17763;SDS011;22245;52.832;13.816;2023-02-28T09:14:03;18.17;;;8.20;;
17763;SDS011;22245;52.832;13.816;2023-02-28T09:17:24;16.93;;;8.27;;
17763;SDS011;22245;52.832;13.816;2023-02-28T09:20:50;17.43;;;8.20;;
17763;SDS011;22245;52.832;13.816;2023-02-28T09:24:13;15.63;;;7.57;;
17763;SDS011;22245;52.832;13.816;2023-02-28T09:27:35;14.27;;;7.07;;
17763;SDS011;22245;52.832;13.816;2023-02-28T09:30:57;13.70;;;6.27;;
17763;SDS011;22245;52.832;13.816;2023-02-28T09:34:19;11.83;;;6.17;;
17763;SDS011;22245;52.832;13.816;2023-02-28T09:37:41;15.03;;;7.07;;
17763;SDS011;22245;52.832;13.816;2023-02-28T09:41:12;10.00;;;5.47;;
17763;SDS011;22245;52.832;13.816;2023-02-28T09:44:37;9.17;;;5.00;;
17763;SDS011;22245;52.832;13.816;2023-02-28T09:48:03;9.30;;;4.03;;
17763;SDS011;22245;52.832;13.816;2023-02-28T09:51:32;5.83;;;3.17;;
17763;SDS011;22245;52.832;13.816;2023-02-28T09:55:01;9.63;;;3.57;;
17763;SDS011;22245;52.832;13.816;2023-02-28T09:58:41;7.70;;;3.93;;
17763;SDS011;22245;52.832;13.816;2023-02-28T10:06:05;5.77;;;3.20;;
17763;SDS011;22245;52.832;13.816;2023-02-28T10:09:32;5.97;;;2.97;;
17763;SDS011;22245;52.832;13.816;2023-02-28T10:12:58;5.30;;;2.73;;
17763;SDS011;22245;52.832;13.816;2023-02-28T10:16:27;5.40;;;2.53;;
17763;SDS011;22245;52.832;13.816;2023-02-28T10:19:56;6.80;;;2.30;;
17763;SDS011;22245;52.832;13.816;2023-02-28T10:23:28;3.87;;;1.87;;
17763;SDS011;22245;52.832;13.816;2023-02-28T10:26:55;5.00;;;2.60;;
17763;SDS011;22245;52.832;13.816;2023-02-28T10:30:21;3.87;;;2.10;;
17763;SDS011;22245;52.832;13.816;2023-02-28T10:33:44;4.63;;;2.13;;
17763;SDS011;22245;52.832;13.816;2023-02-28T10:37:06;3.20;;;2.03;;
17763;SDS011;22245;52.832;13.816;2023-02-28T10:40:30;3.20;;;1.80;;
17763;SDS011;22245;52.832;13.816;2023-02-28T10:47:37;6.13;;;2.60;;
17763;SDS011;22245;52.832;13.816;2023-02-28T10:51:13;5.03;;;2.73;;
17763;SDS011;22245;52.832;13.816;2023-02-28T10:54:37;6.47;;;2.70;;
17763;SDS011;22245;52.832;13.816;2023-02-28T10:57:59;5.13;;;2.70;;
17763;SDS011;22245;52.832;13.816;2023-02-28T11:01:21;4.53;;;2.83;;
17763;SDS011;22245;52.832;13.816;2023-02-28T11:04:44;4.60;;;2.60;;
17763;SDS011;22245;52.832;13.816;2023-02-28T11:08:12;5.77;;;2.70;;
17763;SDS011;22245;52.832;13.816;2023-02-28T11:11:42;4.53;;;2.50;;
17763;SDS011;22245;52.832;13.816;2023-02-28T11:15:07;5.63;;;3.03;;
17763;SDS011;22245;52.832;13.816;2023-02-28T11:18:44;5.67;;;2.40;;
17763;SDS011;22245;52.832;13.816;2023-02-28T11:22:09;4.57;;;2.60;;
17763;SDS011;22245;52.832;13.816;2023-02-28T11:25:33;5.03;;;2.93;;
17763;SDS011;22245;52.832;13.816;2023-02-28T11:29:03;4.27;;;2.60;;
17763;SDS011;22245;52.832;13.816;2023-02-28T11:32:31;5.57;;;2.97;;
17763;SDS011;22245;52.832;13.816;2023-02-28T11:35:53;5.27;;;3.10;;
17763;SDS011;22245;52.832;13.816;2023-02-28T11:39:20;6.87;;;3.20;;
17763;SDS011;22245;52.832;13.816;2023-02-28T11:42:46;6.77;;;3.00;;
17763;SDS011;22245;52.832;13.816;2023-02-28T11:46:17;8.00;;;3.27;;
17763;SDS011;22245;52.832;13.816;2023-02-28T11:49:49;5.93;;;2.90;;
17763;SDS011;22245;52.832;13.816;2023-02-28T11:53:20;7.10;;;3.00;;
17763;SDS011;22245;52.832;13.816;2023-02-28T11:56:48;7.17;;;3.20;;
17763;SDS011;22245;52.832;13.816;2023-02-28T12:00:24;10.10;;;4.00;;
17763;SDS011;22245;52.832;13.816;2023-02-28T12:03:56;7.90;;;3.40;;
17763;SDS011;22245;52.832;13.816;2023-02-28T12:07:28;7.87;;;2.90;;
17763;SDS011;22245;52.832;13.816;2023-02-28T12:10:59;9.37;;;3.43;;
17763;SDS011;22245;52.832;13.816;2023-02-28T12:14:41;5.17;;;2.77;;
17763;SDS011;22245;52.832;13.816;2023-02-28T12:18:15;6.93;;;3.13;;
17763;SDS011;22245;52.832;13.816;2023-02-28T12:21:54;4.33;;;2.60;;
17763;SDS011;22245;52.832;13.816;2023-02-28T12:25:43;5.70;;;2.77;;
17763;SDS011;22245;52.832;13.816;2023-02-28T12:29:14;5.30;;;2.83;;
17763;SDS011;22245;52.832;13.816;2023-02-28T12:32:41;8.93;;;3.40;;
17763;SDS011;22245;52.832;13.816;2023-02-28T12:36:09;5.90;;;3.67;;
17763;SDS011;22245;52.832;13.816;2023-02-28T12:39:36;5.40;;;2.80;;
17763;SDS011;22245;52.832;13.816;2023-02-28T12:43:09;4.53;;;2.83;;
17763;SDS011;22245;52.832;13.816;2023-02-28T12:46:35;6.30;;;2.90;;
17763;SDS011;22245;52.832;13.816;2023-02-28T12:50:03;5.90;;;2.77;;
17763;SDS011;22245;52.832;13.816;2023-02-28T12:53:30;4.50;;;2.57;;
17763;SDS011;22245;52.832;13.816;2023-02-28T12:57:00;5.40;;;2.80;;
17763;SDS011;22245;52.832;13.816;2023-02-28T13:00:32;6.90;;;2.87;;
17763;SDS011;22245;52.832;13.816;2023-02-28T13:04:03;6.10;;;2.80;;
17763;SDS011;22245;52.832;13.816;2023-02-28T13:07:55;9.57;;;3.13;;
17763;SDS011;22245;52.832;13.816;2023-02-28T13:11:28;5.10;;;3.00;;
17763;SDS011;22245;52.832;13.816;2023-02-28T13:15:00;6.17;;;3.00;;
17763;SDS011;22245;52.832;13.816;2023-02-28T13:18:34;5.00;;;2.70;;
17763;SDS011;22245;52.832;13.816;2023-02-28T13:21:59;7.90;;;2.60;;
17763;SDS011;22245;52.832;13.816;2023-02-28T13:29:24;4.50;;;2.63;;
17763;SDS011;22245;52.832;13.816;2023-02-28T13:33:02;4.73;;;2.80;;
17763;SDS011;22245;52.832;13.816;2023-02-28T13:36:43;4.97;;;3.00;;
17763;SDS011;22245;52.832;13.816;2023-02-28T13:44:00;7.77;;;3.83;;
17763;SDS011;22245;52.832;13.816;2023-02-28T13:47:29;4.93;;;2.97;;
17763;SDS011;22245;52.832;13.816;2023-02-28T13:50:53;6.93;;;2.97;;
17763;SDS011;22245;52.832;13.816;2023-02-28T13:54:21;5.83;;;3.07;;
17763;SDS011;22245;52.832;13.816;2023-02-28T13:57:54;5.17;;;2.90;;
17763;SDS011;22245;52.832;13.816;2023-02-28T14:01:28;6.33;;;3.63;;
17763;SDS011;22245;52.832;13.816;2023-02-28T14:05:14;6.67;;;3.40;;
17763;SDS011;22245;52.832;13.816;2023-02-28T14:08:38;7.33;;;3.70;;
17763;SDS011;22245;52.832;13.816;2023-02-28T14:16:20;6.27;;;3.37;;
17763;SDS011;22245;52.832;13.816;2023-02-28T14:19:44;8.07;;;3.33;;
17763;SDS011;22245;52.832;13.816;2023-02-28T14:23:12;6.63;;;4.07;;
17763;SDS011;22245;52.832;13.816;2023-02-28T14:26:56;7.70;;;4.13;;
17763;SDS011;22245;52.832;13.816;2023-02-28T14:30:43;6.00;;;3.57;;
17763;SDS011;22245;52.832;13.816;2023-02-28T14:34:17;6.77;;;3.33;;
17763;SDS011;22245;52.832;13.816;2023-02-28T14:37:47;8.47;;;3.30;;
17763;SDS011;22245;52.832;13.816;2023-02-28T14:41:20;6.83;;;3.40;;
17763;SDS011;22245;52.832;13.816;2023-02-28T14:44:43;6.80;;;3.20;;
17763;SDS011;22245;52.832;13.816;2023-02-28T14:48:16;6.67;;;3.20;;
17763;SDS011;22245;52.832;13.816;2023-02-28T14:51:39;6.73;;;2.97;;
17763;SDS011;22245;52.832;13.816;2023-02-28T14:55:01;5.50;;;3.23;;
17763;SDS011;22245;52.832;13.816;2023-02-28T14:58:29;6.57;;;3.20;;
17763;SDS011;22245;52.832;13.816;2023-02-28T15:01:52;6.17;;;3.30;;
17763;SDS011;22245;52.832;13.816;2023-02-28T15:05:29;6.23;;;3.50;;
17763;SDS011;22245;52.832;13.816;2023-02-28T15:09:06;6.93;;;3.63;;
17763;SDS011;22245;52.832;13.816;2023-02-28T15:12:32;8.73;;;3.27;;
17763;SDS011;22245;52.832;13.816;2023-02-28T15:15:55;4.90;;;2.90;;
17763;SDS011;22245;52.832;13.816;2023-02-28T15:19:23;8.37;;;4.50;;
17763;SDS011;22245;52.832;13.816;2023-02-28T15:22:47;5.73;;;3.20;;
17763;SDS011;22245;52.832;13.816;2023-02-28T15:26:13;6.97;;;2.93;;
17763;SDS011;22245;52.832;13.816;2023-02-28T15:29:41;8.60;;;3.40;;
17763;SDS011;22245;52.832;13.816;2023-02-28T15:33:19;6.20;;;3.30;;
17763;SDS011;22245;52.832;13.816;2023-02-28T15:36:42;6.60;;;2.63;;
17763;SDS011;22245;52.832;13.816;2023-02-28T15:40:07;5.40;;;2.70;;
17763;SDS011;22245;52.832;13.816;2023-02-28T15:43:34;4.20;;;2.77;;
17763;SDS011;22245;52.832;13.816;2023-02-28T15:46:57;6.07;;;3.27;;
17763;SDS011;22245;52.832;13.816;2023-02-28T15:50:23;5.30;;;3.17;;
17763;SDS011;22245;52.832;13.816;2023-02-28T15:53:47;9.00;;;3.13;;
17763;SDS011;22245;52.832;13.816;2023-02-28T15:57:13;10.53;;;5.27;;
17763;SDS011;22245;52.832;13.816;2023-02-28T16:00:36;9.27;;;4.13;;
17763;SDS011;22245;52.832;13.816;2023-02-28T16:03:59;7.43;;;3.90;;
17763;SDS011;22245;52.832;13.816;2023-02-28T16:07:25;9.87;;;4.10;;
17763;SDS011;22245;52.832;13.816;2023-02-28T16:10:47;9.63;;;4.80;;
17763;SDS011;22245;52.832;13.816;2023-02-28T16:14:13;7.93;;;4.23;;
17763;SDS011;22245;52.832;13.816;2023-02-28T16:17:38;8.60;;;4.40;;
17763;SDS011;22245;52.832;13.816;2023-02-28T16:21:00;7.63;;;4.90;;
17763;SDS011;22245;52.832;13.816;2023-02-28T16:24:23;14.60;;;7.60;;
17763;SDS011;22245;52.832;13.816;2023-02-28T16:27:46;13.07;;;6.20;;
17763;SDS011;22245;52.832;13.816;2023-02-28T16:31:10;12.17;;;6.00;;
17763;SDS011;22245;52.832;13.816;2023-02-28T16:34:36;10.10;;;5.30;;
17763;SDS011;22245;52.832;13.816;2023-02-28T16:37:58;16.37;;;8.53;;
17763;SDS011;22245;52.832;13.816;2023-02-28T16:41:22;20.93;;;10.13;;
17763;SDS011;22245;52.832;13.816;2023-02-28T16:44:47;24.50;;;12.30;;
17763;SDS011;22245;52.832;13.816;2023-02-28T16:48:10;20.60;;;10.17;;
17763;SDS011;22245;52.832;13.816;2023-02-28T16:51:35;16.57;;;8.40;;
17763;SDS011;22245;52.832;13.816;2023-02-28T16:54:57;19.40;;;9.17;;
17763;SDS011;22245;52.832;13.816;2023-02-28T16:58:21;25.93;;;13.20;;
17763;SDS011;22245;52.832;13.816;2023-02-28T17:01:45;21.57;;;10.73;;
17763;SDS011;22245;52.832;13.816;2023-02-28T17:05:08;16.20;;;9.00;;
17763;SDS011;22245;52.832;13.816;2023-02-28T17:08:32;11.50;;;5.33;;
17763;SDS011;22245;52.832;13.816;2023-02-28T17:11:53;8.63;;;4.13;;
17763;SDS011;22245;52.832;13.816;2023-02-28T17:15:18;8.37;;;3.60;;
17763;SDS011;22245;52.832;13.816;2023-02-28T17:18:41;5.97;;;3.10;;
17763;SDS011;22245;52.832;13.816;2023-02-28T17:22:03;6.43;;;3.27;;
17763;SDS011;22245;52.832;13.816;2023-02-28T17:25:25;5.90;;;2.80;;
17763;SDS011;22245;52.832;13.816;2023-02-28T17:28:47;7.13;;;2.80;;
17763;SDS011;22245;52.832;13.816;2023-02-28T17:32:12;10.47;;;3.50;;
17763;SDS011;22245;52.832;13.816;2023-02-28T17:35:37;12.83;;;3.90;;
17763;SDS011;22245;52.832;13.816;2023-02-28T17:39:00;6.80;;;4.00;;
17763;SDS011;22245;52.832;13.816;2023-02-28T17:42:23;5.77;;;2.90;;
17763;SDS011;22245;52.832;13.816;2023-02-28T17:45:44;9.07;;;3.20;;
17763;SDS011;22245;52.832;13.816;2023-02-28T17:49:07;6.83;;;3.17;;
17763;SDS011;22245;52.832;13.816;2023-02-28T17:52:29;9.00;;;4.03;;
17763;SDS011;22245;52.832;13.816;2023-02-28T17:55:56;12.07;;;4.10;;
17763;SDS011;22245;52.832;13.816;2023-02-28T17:59:18;7.37;;;4.00;;
17763;SDS011;22245;52.832;13.816;2023-02-28T18:02:40;10.93;;;5.80;;
17763;SDS011;22245;52.832;13.816;2023-02-28T18:06:04;9.30;;;5.83;;
17763;SDS011;22245;52.832;13.816;2023-02-28T18:09:26;9.10;;;5.03;;
17763;SDS011;22245;52.832;13.816;2023-02-28T18:12:49;9.13;;;4.80;;
17763;SDS011;22245;52.832;13.816;2023-02-28T18:16:11;7.00;;;3.83;;
17763;SDS011;22245;52.832;13.816;2023-02-28T18:19:33;13.30;;;6.90;;
17763;SDS011;22245;52.832;13.816;2023-02-28T18:22:58;21.53;;;9.70;;
17763;SDS011;22245;52.832;13.816;2023-02-28T18:26:20;18.43;;;8.30;;
17763;SDS011;22245;52.832;13.816;2023-02-28T18:29:42;16.27;;;7.47;;
17763;SDS011;22245;52.832;13.816;2023-02-28T18:33:04;11.37;;;5.47;;
17763;SDS011;22245;52.832;13.816;2023-02-28T18:36:26;8.30;;;3.70;;
17763;SDS011;22245;52.832;13.816;2023-02-28T18:39:50;7.67;;;3.40;;
17763;SDS011;22245;52.832;13.816;2023-02-28T18:43:12;6.73;;;3.10;;
17763;SDS011;22245;52.832;13.816;2023-02-28T18:46:34;6.00;;;2.93;;
17763;SDS011;22245;52.832;13.816;2023-02-28T18:49:56;6.00;;;3.13;;
17763;SDS011;22245;52.832;13.816;2023-02-28T18:53:20;5.63;;;3.20;;
17763;SDS011;22245;52.832;13.816;2023-02-28T18:56:44;5.67;;;3.57;;
17763;SDS011;22245;52.832;13.816;2023-02-28T19:00:06;9.50;;;4.83;;
17763;SDS011;22245;52.832;13.816;2023-02-28T19:03:29;7.23;;;4.47;;
17763;SDS011;22245;52.832;13.816;2023-02-28T19:06:51;6.33;;;3.37;;
17763;SDS011;22245;52.832;13.816;2023-02-28T19:10:13;8.33;;;4.40;;
17763;SDS011;22245;52.832;13.816;2023-02-28T19:13:36;10.17;;;3.87;;
17763;SDS011;22245;52.832;13.816;2023-02-28T19:16:58;6.07;;;2.93;;
17763;SDS011;22245;52.832;13.816;2023-02-28T19:20:20;4.37;;;2.90;;
17763;SDS011;22245;52.832;13.816;2023-02-28T19:23:42;9.40;;;4.40;;
17763;SDS011;22245;52.832;13.816;2023-02-28T19:27:04;8.77;;;4.20;;
17763;SDS011;22245;52.832;13.816;2023-02-28T19:30:27;11.70;;;4.67;;
17763;SDS011;22245;52.832;13.816;2023-02-28T19:33:48;8.83;;;3.00;;
17763;SDS011;22245;52.832;13.816;2023-02-28T19:37:12;5.53;;;3.00;;
17763;SDS011;22245;52.832;13.816;2023-02-28T19:40:34;6.17;;;3.33;;
17763;SDS011;22245;52.832;13.816;2023-02-28T19:43:56;8.20;;;3.93;;
17763;SDS011;22245;52.832;13.816;2023-02-28T19:47:19;9.47;;;4.53;;
17763;SDS011;22245;52.832;13.816;2023-02-28T19:50:42;8.47;;;3.77;;
17763;SDS011;22245;52.832;13.816;2023-02-28T19:54:04;7.47;;;4.10;;
17763;SDS011;22245;52.832;13.816;2023-02-28T19:57:26;7.60;;;4.73;;
17763;SDS011;22245;52.832;13.816;2023-02-28T20:00:47;7.17;;;3.70;;
17763;SDS011;22245;52.832;13.816;2023-02-28T20:04:11;6.93;;;3.57;;
17763;SDS011;22245;52.832;13.816;2023-02-28T20:07:33;6.47;;;3.60;;
17763;SDS011;22245;52.832;13.816;2023-02-28T20:11:00;8.90;;;4.20;;
17763;SDS011;22245;52.832;13.816;2023-02-28T20:14:22;6.90;;;4.00;;
17763;SDS011;22245;52.832;13.816;2023-02-28T20:17:44;7.90;;;3.43;;
17763;SDS011;22245;52.832;13.816;2023-02-28T20:21:08;7.27;;;3.30;;
17763;SDS011;22245;52.832;13.816;2023-02-28T20:24:29;32.80;;;12.57;;
17763;SDS011;22245;52.832;13.816;2023-02-28T20:27:50;11.20;;;4.73;;
17763;SDS011;22245;52.832;13.816;2023-02-28T20:31:13;13.00;;;6.43;;
17763;SDS011;22245;52.832;13.816;2023-02-28T20:34:36;18.30;;;9.00;;
17763;SDS011;22245;52.832;13.816;2023-02-28T20:37:59;9.20;;;5.60;;
17763;SDS011;22245;52.832;13.816;2023-02-28T20:41:21;7.27;;;3.97;;
17763;SDS011;22245;52.832;13.816;2023-02-28T20:44:43;7.43;;;3.50;;
17763;SDS011;22245;52.832;13.816;2023-02-28T20:48:05;6.23;;;4.03;;